EGLL/LHR METAR and TAF weather

Enter ICAO airport designator
Station Type Date Time Source
EGLL METAR 2019/04/19 22:20 UTC NOAA

EGLL 192220Z AUTO 02002KT 9999 NCD 14/05 Q1031


Station Type Date Time Source
EGLL Decoded METAR 2019/04/19 22:20 UTC NOAA

London / Heathrow Airport, United Kingdom (EGLL) 51-29N 000-27W 0M
Apr 19, 2019 - 06:20 PM EDT / 2019.04.19 2220 UTC
Wind: from the NNE (020 degrees) at 2 MPH (2 KT):0
Visibility: greater than 7 mile(s):0
Temperature: 57 F (14 C)
Dew Point: 41 F (5 C)
Relative Humidity: 54%
Pressure (altimeter): 30.45 in. Hg (1031 hPa)
ob: EGLL 192220Z AUTO 02002KT 9999 NCD 14/05 Q1031
cycle: 22

Station Type Date Time Source
EGLL TAF 2019/04/19 18:06 UTC NOAA

TAF EGLL 191652Z 1918/2024 05006KT CAVOK
BECMG 2001/2004 8000
BECMG 2007/2010 9999
BECMG 2022/2024 7000

Example: see airport list